Dothan, Alabama
Current Conditions -  °F | °C
As of 9:53 PM on Wednesday 22 Oct 2014 (Local Time) from KDHN Reporting Station
Clear Clear  
Wind Chill: 11°   Ceiling: Unl
Heat Index: 11°   Visibility: 10mi
Dew Point:   Wind: 3mph
Humidity: 80%   Direction: 20°NNE
Pressure: 30.12"   Gusts: NA
Location:  31.22°N, 85.39°W
Report Text: KDHN 230253Z AUTO 02003KT 10SM CLR 11/07 A3012 RMK AO2 SLP198 T01060072 53013
Loading
Personal Weather Stations






























Interactive Weather Map
Tropical Storm Tracking
New forecast layout! Learn more

10-Day Weather Forecast

Advertisements
Track Severe Weather on mobile